Time;durP1;ratioP1;P1;durP2;ratioP2;P2;SDS_P1;SDS_P2;PMS_P1;PMS_P2;Temp;Humidity;BMP_temperature;BMP_pressure;BME280_temperature;BME280_humidity;BME280_pressure;Samples;Min_cycle;Max_cycle;Signal;HPM_P1;HPM_P2
2022/08/02 00:02:23;;;;;;;9.68;3.83;;;;;;;;;;5103930;27;20424;-74
2022/08/02 00:04:50;;;;;;;8.27;3.53;;;;;;;;;;5128546;27;20446;-74
2022/08/02 00:07:16;;;;;;;9.05;3.67;;;;;;;;;;5113294;27;20436;-75
2022/08/02 00:09:43;;;;;;;7.68;3.55;;;14.00;99.90;;;;;;5122692;27;20414;-75
2022/08/02 00:12:09;;;;;;;9.85;3.78;;;;;;;;;;5129128;27;20489;-74
2022/08/02 00:14:35;;;;;;;8.35;3.70;;;;;;;;;;5131294;27;20468;-75
2022/08/02 00:17:01;;;;;;;11.40;4.05;;;;;;;;;;5127819;27;20413;-75
2022/08/02 00:19:27;;;;;;;10.87;3.93;;;;;;;;;;5126365;27;20442;-75
2022/08/02 00:21:53;;;;;;;10.15;4.22;;;;;;;;;;5131199;27;20445;-75
2022/08/02 00:24:19;;;;;;;9.68;4.28;;;;;;;;;;5109928;27;20427;-75
2022/08/02 00:26:45;;;;;;;8.55;4.32;;;;;;;;;;5110193;28;20425;-75
2022/08/02 00:29:11;;;;;;;11.27;4.05;;;;;;;;;;5112593;27;20488;-75
2022/08/02 00:31:37;;;;;;;12.57;4.47;;;13.60;99.90;;;;;;5117328;27;20422;-75
2022/08/02 00:34:03;;;;;;;10.48;4.20;;;13.70;99.90;;;;;;5119978;28;20776;-75
2022/08/02 00:36:29;;;;;;;11.13;4.00;;;;;;;;;;5103975;28;20415;-75
2022/08/02 00:38:55;;;;;;;9.27;4.30;;;13.50;99.90;;;;;;5129293;27;20921;-75
2022/08/02 00:41:21;;;;;;;13.40;4.45;;;;;;;;;;5132249;28;20475;-75
2022/08/02 00:43:50;;;;;;;11.20;4.00;;;13.40;99.90;;;;;;5111626;27;20900;-75
2022/08/02 00:46:18;;;;;;;12.90;4.55;;;13.30;99.90;;;;;;5116307;28;20414;-75
2022/08/02 00:48:44;;;;;;;10.38;4.05;;;;;;;;;;5131056;28;20450;-75
2022/08/02 00:51:10;;;;;;;10.63;4.47;;;;;;;;;;5122464;27;20484;-75
2022/08/02 00:53:37;;;;;;;12.55;4.10;;;;;;;;;;5113822;27;20462;-75
2022/08/02 00:56:03;;;;;;;12.10;4.13;;;;;;;;;;5128321;27;20838;-75
2022/08/02 00:58:29;;;;;;;9.65;4.03;;;;;;;;;;5133766;27;20886;-75
2022/08/02 01:00:56;;;;;;;9.48;4.10;;;;;;;;;;5130841;28;20426;-74
2022/08/02 01:03:23;;;;;;;11.97;4.27;;;13.30;99.90;;;;;;5101957;28;20497;-74
2022/08/02 01:05:49;;;;;;;11.15;4.60;;;;;;;;;;5109704;27;20408;-74
2022/08/02 01:08:16;;;;;;;12.05;4.40;;;;;;;;;;5117549;27;20406;-75
2022/08/02 01:10:42;;;;;;;10.65;4.35;;;;;;;;;;5130742;27;20905;-75
2022/08/02 01:13:08;;;;;;;10.95;4.30;;;;;;;;;;5126196;28;20410;-74
2022/08/02 01:15:37;;;;;;;9.57;4.33;;;;;;;;;;5099499;27;20812;-74
2022/08/02 01:18:14;;;;;;;9.43;4.55;;;12.90;99.90;;;;;;5120191;27;20422;-75
2022/08/02 01:20:46;;;;;;;9.55;4.65;;;;;;;;;;5122440;27;20420;-75
2022/08/02 01:23:27;;;;;;;11.23;4.30;;;;;;;;;;5123717;27;20414;-75
2022/08/02 01:26:24;;;;;;;10.97;4.43;;;12.60;99.90;;;;;;5136553;27;20428;-75
2022/08/02 01:28:59;;;;;;;10.95;4.30;;;12.60;99.90;;;;;;5114050;27;20400;-75
2022/08/02 01:31:46;;;;;;;10.60;4.07;;;12.80;99.90;;;;;;5124898;27;20418;-75
2022/08/02 01:34:29;;;;;;;10.65;4.30;;;12.50;99.90;;;;;;5118273;27;20417;-75
2022/08/02 01:37:01;;;;;;;11.70;4.22;;;12.50;99.90;;;;;;5113811;27;20442;-75
2022/08/02 01:39:32;;;;;;;12.05;4.25;;;12.50;99.90;;;;;;5116419;27;20418;-75
2022/08/02 01:41:59;;;;;;;10.82;4.47;;;;;;;;;;5127614;27;20475;-75
2022/08/02 01:44:25;;;;;;;10.25;4.20;;;;;;;;;;5132382;27;20415;-75
2022/08/02 01:46:52;;;;;;;11.20;4.20;;;;;;;;;;5132019;27;20939;-75
2022/08/02 01:49:22;;;;;;;11.38;4.30;;;12.60;99.90;;;;;;5122215;27;20537;-75
2022/08/02 01:54:35;;;;;;;10.55;4.30;;;12.80;99.90;;;;;;5133090;27;20479;-75
2022/08/02 01:57:03;;;;;;;8.57;4.28;;;;;;;;;;5132987;27;20419;-75
2022/08/02 01:59:31;;;;;;;9.50;4.40;;;12.80;99.90;;;;;;5132619;27;20763;-75
2022/08/02 02:01:58;;;;;;;13.55;4.47;;;12.70;99.90;;;;;;5120970;27;20423;-75
2022/08/02 02:04:27;;;;;;;13.23;4.90;;;12.70;99.90;;;;;;5112554;28;20515;-75
2022/08/02 02:06:54;;;;;;;10.52;4.30;;;12.60;99.90;;;;;;5096342;28;20407;-75
2022/08/02 02:09:24;;;;;;;13.25;4.88;;;12.70;99.90;;;;;;5124530;27;22116;-76
2022/08/02 02:11:50;;;;;;;10.80;4.73;;;;;;;;;;5133806;27;20455;-75
2022/08/02 02:14:17;;;;;;;13.63;4.95;;;;;;;;;;5120073;27;20473;-75
2022/08/02 02:16:46;;;;;;;13.88;4.95;;;12.60;99.90;;;;;;5112733;28;20499;-75
2022/08/02 02:19:15;;;;;;;11.77;4.40;;;12.40;99.90;;;;;;5121760;27;20410;-75
2022/08/02 02:21:42;;;;;;;12.75;4.80;;;;;;;;;;5123759;27;20423;-75
2022/08/02 02:24:08;;;;;;;15.27;4.93;;;;;;;;;;5112299;27;20526;-75
2022/08/02 02:26:36;;;;;;;10.32;4.80;;;12.60;99.90;;;;;;5130502;27;20405;-75
2022/08/02 02:29:04;;;;;;;12.65;5.20;;;12.90;99.90;;;;;;5129339;27;20414;-75
2022/08/02 02:31:34;;;;;;;10.80;4.90;;;;;;;;;;5132992;27;20398;-75
2022/08/02 02:34:02;;;;;;;13.02;4.90;;;;;;;;;;5132938;27;20517;-75
2022/08/02 02:36:29;;;;;;;11.37;4.77;;;12.60;99.90;;;;;;5114308;27;20446;-75
2022/08/02 02:39:00;;;;;;;15.02;5.60;;;12.70;99.90;;;;;;5129084;27;20869;-75
2022/08/02 02:41:26;;;;;;;11.68;5.25;;;;;;;;;;5117137;27;20421;-76
2022/08/02 02:43:57;;;;;;;10.25;4.90;;;;;;;;;;5112243;28;20388;-75
2022/08/02 02:46:24;;;;;;;14.45;5.45;;;;;;;;;;5119060;27;20410;-75
2022/08/02 02:48:51;;;;;;;10.90;5.30;;;;;;;;;;5115831;27;20420;-75
2022/08/02 02:51:18;;;;;;;13.90;5.50;;;12.60;99.90;;;;;;5116849;27;20420;-75
2022/08/02 02:53:48;;;;;;;9.80;5.10;;;;;;;;;;5112274;27;20846;-75
2022/08/02 02:56:15;;;;;;;12.10;5.65;;;;;;;;;;5130003;27;20513;-75
2022/08/02 02:58:41;;;;;;;14.00;6.25;;;;;;;;;;5130821;27;20437;-75
2022/08/02 03:04:04;;;;;;;13.40;6.07;;;12.60;99.90;;;;;;5134429;27;20985;-75
2022/08/02 03:06:30;;;;;;;12.32;5.68;;;;;;;;;;5130980;27;20391;-75
2022/08/02 03:08:56;;;;;;;11.43;5.85;;;12.60;99.90;;;;;;5125053;27;20878;-75
2022/08/02 03:11:23;;;;;;;15.40;6.28;;;;;;;;;;5132469;27;20390;-75
2022/08/02 03:13:50;;;;;;;15.93;6.40;;;;;;;;;;5132716;27;20483;-75
2022/08/02 03:16:16;;;;;;;17.17;6.10;;;;;;;;;;5121736;27;20427;-75
2022/08/02 03:18:43;;;;;;;14.55;5.70;;;;;;;;;;5116371;27;20433;-75
2022/08/02 03:21:12;;;;;;;13.90;6.50;;;12.40;99.90;;;;;;5113501;27;20500;-75
2022/08/02 03:23:40;;;;;;;14.27;5.95;;;12.40;99.90;;;;;;5117737;27;20407;-75
2022/08/02 03:26:07;;;;;;;15.57;6.00;;;;;;;;;;5116111;27;20762;-75
2022/08/02 03:28:33;;;;;;;12.07;5.90;;;;;;;;;;5128663;27;20492;-75
2022/08/02 03:31:00;;;;;;;15.98;6.18;;;;;;;;;;5096180;28;20511;-75
2022/08/02 03:33:27;;;;;;;15.35;6.50;;;;;;;;;;5113227;27;20488;-75
2022/08/02 03:35:55;;;;;;;13.70;6.37;;;12.40;99.90;;;;;;5112291;28;20483;-76
2022/08/02 03:38:22;;;;;;;12.50;6.40;;;12.10;99.90;;;;;;5117395;27;20892;-75
2022/08/02 03:40:49;;;;;;;14.35;6.30;;;12.40;99.90;;;;;;5128710;27;20948;-75
2022/08/02 03:43:16;;;;;;;12.05;6.00;;;12.50;99.90;;;;;;5134017;27;20484;-75
2022/08/02 03:45:44;;;;;;;13.73;6.25;;;12.50;99.90;;;;;;5132050;27;20487;-75
2022/08/02 03:48:11;;;;;;;16.45;6.13;;;12.40;99.90;;;;;;5131240;27;20418;-75
2022/08/02 03:50:38;;;;;;;12.32;6.65;;;;;;;;;;5130718;27;20446;-75
2022/08/02 03:53:04;;;;;;;15.65;6.93;;;;;;;;;;5126464;27;20411;-75
2022/08/02 03:55:30;;;;;;;18.60;7.00;;;;;;;;;;5093567;28;20439;-75
2022/08/02 03:57:56;;;;;;;15.97;6.70;;;;;;;;;;5111215;28;20475;-75
2022/08/02 04:00:23;;;;;;;13.38;6.85;;;;;;;;;;5123003;27;20532;-75
2022/08/02 04:02:49;;;;;;;12.57;6.70;;;;;;;;;;5123966;27;20411;-75
2022/08/02 04:05:16;;;;;;;15.25;6.82;;;12.30;99.90;;;;;;5114401;27;20427;-75
2022/08/02 04:07:42;;;;;;;16.92;6.93;;;;;;;;;;5126433;27;20921;-75
2022/08/02 04:10:09;;;;;;;14.25;6.70;;;12.00;99.90;;;;;;5094578;28;20403;-75
2022/08/02 04:12:35;;;;;;;12.63;6.38;;;;;;;;;;5112079;27;20392;-75
2022/08/02 04:15:03;;;;;;;12.50;6.93;;;12.20;99.90;;;;;;5129113;27;20495;-76
2022/08/02 04:17:31;;;;;;;18.33;7.55;;;;;;;;;;5129304;27;20428;-75
2022/08/02 04:20:04;;;;;;;16.97;7.50;;;;;;;;;;5110873;28;20404;-75
2022/08/02 04:22:50;;;;;;;16.55;6.85;;;12.80;99.90;;;;;;5128414;27;20448;-75
2022/08/02 04:25:19;;;;;;;16.20;6.95;;;12.50;99.90;;;;;;5106552;28;20424;-75
2022/08/02 04:27:45;;;;;;;20.70;7.60;;;;;;;;;;5110642;28;20900;-75
2022/08/02 04:30:12;;;;;;;14.37;6.63;;;;;;;;;;5114666;27;20457;-75
2022/08/02 04:32:38;;;;;;;15.18;7.00;;;;;;;;;;5110909;28;20884;-75
2022/08/02 04:35:06;;;;;;;19.60;7.68;;;12.20;99.90;;;;;;5105160;28;20503;-75
2022/08/02 04:37:33;;;;;;;17.13;6.97;;;12.50;99.90;;;;;;5130264;27;20485;-75
2022/08/02 04:39:59;;;;;;;13.70;7.35;;;;;;;;;;5115384;28;20447;-75
2022/08/02 04:42:25;;;;;;;15.05;7.47;;;12.80;99.90;;;;;;5093690;28;20423;-75
2022/08/02 04:44:52;;;;;;;17.25;8.00;;;12.50;99.90;;;;;;5125045;27;20423;-75
2022/08/02 04:47:19;;;;;;;15.90;7.30;;;12.60;99.90;;;;;;5114652;27;20410;-75
2022/08/02 04:49:45;;;;;;;16.33;7.40;;;;;;;;;;5124646;27;20415;-75
2022/08/02 04:52:11;;;;;;;16.17;7.35;;;;;;;;;;5133488;27;20513;-75
2022/08/02 04:54:37;;;;;;;15.23;7.70;;;;;;;;;;5117819;27;20418;-75
2022/08/02 04:57:53;;;;;;;17.63;7.65;;;;;;;;;;5132625;27;20422;-74
2022/08/02 04:59:50;;;;;;;15.32;7.13;;;;;;;;;;5126291;27;20416;-74
2022/08/02 05:02:16;;;;;;;16.00;7.72;;;;;;;;;;5099422;27;20768;-75
2022/08/02 05:04:42;;;;;;;12.90;7.40;;;;;;;;;;5122740;27;20425;-75
2022/08/02 05:07:08;;;;;;;14.52;7.53;;;;;;;;;;5130203;27;20427;-74
2022/08/02 05:09:34;;;;;;;15.00;7.45;;;;;;;;;;5114343;28;20405;-73
2022/08/02 05:12:00;;;;;;;17.83;8.05;;;;;;;;;;5114290;28;20408;-74
2022/08/02 05:14:26;;;;;;;14.98;7.32;;;;;;;;;;5128619;27;20414;-73
2022/08/02 05:16:52;;;;;;;13.43;7.63;;;;;;;;;;5130560;27;20484;-73
2022/08/02 05:19:18;;;;;;;14.82;7.53;;;;;;;;;;5116364;27;20426;-73
2022/08/02 05:21:44;;;;;;;14.65;7.68;;;;;;;;;;5129196;27;20767;-73
2022/08/02 05:24:10;;;;;;;16.27;7.67;;;13.30;99.90;;;;;;5133907;27;20414;-73
2022/08/02 05:26:36;;;;;;;18.53;7.53;;;;;;;;;;5135642;27;20982;-73
2022/08/02 05:29:03;;;;;;;15.47;7.50;;;;;;;;;;5129181;27;20463;-73
2022/08/02 05:31:29;;;;;;;18.45;7.63;;;;;;;;;;5130172;27;20418;-73
2022/08/02 05:33:55;;;;;;;17.10;7.18;;;13.40;99.90;;;;;;5119776;27;20424;-73
2022/08/02 05:36:21;;;;;;;17.67;7.33;;;;;;;;;;5130609;27;20457;-73
2022/08/02 05:38:49;;;;;;;13.53;7.07;;;13.80;99.90;;;;;;5115874;27;20540;-73
2022/08/02 05:41:15;;;;;;;19.02;7.63;;;;;;;;;;5130359;27;20415;-73
2022/08/02 05:43:41;;;;;;;17.38;7.63;;;;;;;;;;5118712;27;20420;-73
2022/08/02 05:46:07;;;;;;;19.45;7.68;;;;;;;;;;5124755;27;20740;-73
2022/08/02 05:48:33;;;;;;;16.00;6.60;;;;;;;;;;5130291;27;20422;-73
2022/08/02 05:51:04;;;;;;;13.27;6.80;;;14.40;99.90;;;;;;5134494;27;20419;-73
2022/08/02 05:53:30;;;;;;;12.43;6.40;;;;;;;;;;5125244;27;20424;-74
2022/08/02 05:56:07;;;;;;;14.15;6.97;;;;;;;;;;5113552;27;20431;-73
2022/08/02 05:58:46;;;;;;;15.23;6.83;;;14.70;99.90;;;;;;5128295;27;20479;-73
2022/08/02 06:01:13;;;;;;;17.92;6.70;;;;;;;;;;5115912;27;20422;-73
2022/08/02 06:03:45;;;;;;;19.50;6.37;;;;;;;;;;5107748;27;20471;-73
2022/08/02 06:06:13;;;;;;;14.32;6.57;;;;;;;;;;5133675;27;20391;-73
2022/08/02 06:08:42;;;;;;;15.75;6.25;;;;;;;;;;5131648;27;20419;-73
2022/08/02 06:11:12;;;;;;;13.95;6.15;;;15.50;99.90;;;;;;5126936;27;20420;-73
2022/08/02 06:13:39;;;;;;;18.02;6.63;;;15.60;99.90;;;;;;5115636;27;20462;-73
2022/08/02 06:16:06;;;;;;;15.47;5.63;;;;;;;;;;5133240;27;20452;-73
2022/08/02 06:18:32;;;;;;;13.23;5.40;;;;;;;;;;5127120;27;20414;-73
2022/08/02 06:21:02;;;;;;;12.23;5.78;;;;;;;;;;5132433;27;20914;-73
2022/08/02 06:23:28;;;;;;;11.52;5.53;;;16.20;99.90;;;;;;5132719;27;20410;-73
2022/08/02 06:25:56;;;;;;;13.02;4.97;;;;;;;;;;5130245;27;20422;-72
2022/08/02 06:28:22;;;;;;;14.27;5.47;;;16.40;99.90;;;;;;5129010;27;20465;-73
2022/08/02 06:30:48;;;;;;;11.30;4.50;;;16.60;99.90;;;;;;5131432;27;21257;-73
2022/08/02 06:33:14;;;;;;;9.73;4.63;;;;;;;;;;5099220;27;20542;-73
2022/08/02 06:36:05;;;;;;;11.40;4.70;;;;;;;;;;5125659;27;20479;-73
2022/08/02 06:38:39;;;;;;;11.15;4.28;;;16.70;99.90;;;;;;5122853;27;20418;-73
2022/08/02 06:41:07;;;;;;;14.93;4.68;;;;;;;;;;5122524;27;20412;-73
2022/08/02 06:43:35;;;;;;;13.40;4.53;;;17.00;99.90;;;;;;5129398;27;20410;-73
2022/08/02 06:46:01;;;;;;;15.00;4.40;;;16.90;99.90;;;;;;5125344;27;20458;-73
2022/08/02 06:48:28;;;;;;;14.05;4.20;;;17.10;99.90;;;;;;5131513;27;20891;-73
2022/08/02 06:50:54;;;;;;;12.25;4.30;;;17.30;99.90;;;;;;5112731;27;20446;-74
2022/08/02 06:53:20;;;;;;;9.40;3.90;;;;;;;;;;5132129;27;20475;-73
2022/08/02 06:55:45;;;;;;;11.13;4.05;;;17.70;99.90;;;;;;5128414;27;20429;-73
2022/08/02 06:58:12;;;;;;;10.05;3.42;;;17.60;99.90;;;;;;5128234;27;20423;-73
2022/08/02 07:00:39;;;;;;;12.93;3.70;;;17.70;99.90;;;;;;5122760;27;20790;-73
2022/08/02 07:03:05;;;;;;;8.95;3.40;;;;;;;;;;5108133;27;20761;-74
2022/08/02 07:05:31;;;;;;;8.18;3.10;;;18.00;99.90;;;;;;5132845;27;20395;-74
2022/08/02 07:07:57;;;;;;;12.50;3.25;;;18.50;99.90;;;;;;5117113;27;20804;-74
2022/08/02 07:10:22;;;;;;;9.97;3.30;;;18.40;99.90;;;;;;5102512;27;20477;-75
2022/08/02 07:12:48;;;;;;;14.30;3.20;;;;;;;;;;5129785;27;20463;-74
2022/08/02 07:15:15;;;;;;;7.97;2.50;;;18.30;99.90;;;;;;5133180;27;20417;-75
2022/08/02 07:17:41;;;;;;;7.95;3.03;;;18.70;99.90;;;;;;5124551;27;20427;-75
2022/08/02 07:20:08;;;;;;;6.63;2.55;;;18.50;99.90;;;;;;5111518;27;20435;-72
2022/08/02 07:22:35;;;;;;;7.67;2.50;;;18.50;99.90;;;;;;5129599;27;20824;-72
2022/08/02 07:25:01;;;;;;;7.13;2.85;;;;;;;;;;5113908;27;20414;-72
2022/08/02 07:27:27;;;;;;;5.97;2.55;;;18.60;99.90;;;;;;5124338;27;20423;-72
2022/08/02 07:29:54;;;;;;;8.32;2.55;;;;;;;;;;5120384;27;20408;-72
2022/08/02 07:32:23;;;;;;;7.93;2.55;;;19.10;99.90;;;;;;5124220;27;20913;-72
2022/08/02 07:34:49;;;;;;;7.28;2.63;;;19.10;99.90;;;;;;5124617;27;20941;-73
2022/08/02 07:37:15;;;;;;;5.85;2.55;;;;;;;;;;5115396;27;20474;-74
2022/08/02 07:39:41;;;;;;;6.25;2.20;;;19.40;99.90;;;;;;5122175;27;20476;-73
2022/08/02 07:42:07;;;;;;;5.90;2.03;;;19.70;99.90;;;;;;5099248;27;20772;-73
2022/08/02 07:44:35;;;;;;;9.48;2.60;;;19.60;99.90;;;;;;5101503;27;20416;-73
2022/08/02 07:47:01;;;;;;;4.75;2.00;;;19.90;99.90;;;;;;5121198;27;20462;-73
2022/08/02 07:49:27;;;;;;;7.03;2.08;;;;;;;;;;5116622;27;20408;-74
2022/08/02 07:51:53;;;;;;;6.68;1.83;;;20.40;99.90;;;;;;5112792;27;20424;-74
2022/08/02 07:54:21;;;;;;;5.80;1.92;;;20.00;99.90;;;;;;5096848;28;20432;-74
2022/08/02 07:56:46;;;;;;;4.35;1.80;;;20.60;99.90;;;;;;5121814;27;20469;-72
2022/08/02 07:59:13;;;;;;;5.32;2.00;;;20.70;99.90;;;;;;5128921;27;20442;-73
2022/08/02 08:01:38;;;;;;;6.95;1.90;;;20.70;99.90;;;;;;5102432;27;20498;-73
2022/08/02 08:04:04;;;;;;;7.22;1.95;;;20.90;99.90;;;;;;5113771;27;20966;-73
2022/08/02 08:06:30;;;;;;;5.05;1.63;;;20.50;99.90;;;;;;5093047;28;20423;-73
2022/08/02 08:08:57;;;;;;;5.07;1.90;;;;;;;;;;5112313;27;20485;-73
2022/08/02 08:11:23;;;;;;;6.40;1.77;;;21.30;99.90;;;;;;5118267;27;20466;-73
2022/08/02 08:13:49;;;;;;;6.53;1.90;;;21.10;99.90;;;;;;5125036;27;20914;-74
2022/08/02 08:16:15;;;;;;;6.95;1.90;;;21.00;99.90;;;;;;5129479;27;20458;-73
2022/08/02 08:18:40;;;;;;;4.40;1.73;;;21.10;99.90;;;;;;5112459;27;20415;-73
2022/08/02 08:21:06;;;;;;;4.00;1.80;;;21.20;99.90;;;;;;5126526;27;20434;-73
2022/08/02 08:23:32;;;;;;;3.43;2.00;;;21.20;99.90;;;;;;5105183;27;20414;-73
2022/08/02 08:25:58;;;;;;;7.38;1.90;;;21.00;99.90;;;;;;5112889;27;20409;-73
2022/08/02 08:28:23;;;;;;;5.20;1.85;;;21.50;99.90;;;;;;5110834;28;20892;-73
2022/08/02 08:30:49;;;;;;;4.47;1.70;;;21.70;99.90;;;;;;5108900;27;20420;-72
2022/08/02 08:33:15;;;;;;;6.20;1.60;;;21.70;99.90;;;;;;5113452;27;20409;-73
2022/08/02 08:35:41;;;;;;;5.93;1.85;;;21.90;99.90;;;;;;5130695;28;20450;-73
2022/08/02 08:38:07;;;;;;;5.22;1.92;;;22.10;99.90;;;;;;5117305;27;20414;-73
2022/08/02 08:40:41;;;;;;;4.53;1.60;;;22.10;99.90;;;;;;5122175;27;20926;-72
2022/08/02 08:43:07;;;;;;;5.15;1.90;;;22.60;99.90;;;;;;5109695;28;20427;-73
2022/08/02 08:45:33;;;;;;;4.88;1.60;;;22.60;99.90;;;;;;5130704;27;20928;-73
2022/08/02 08:48:12;;;;;;;3.63;1.70;;;22.60;99.90;;;;;;5123027;27;20416;-73
2022/08/02 08:51:00;;;;;;;3.78;1.50;;;22.80;99.90;;;;;;5128152;27;20418;-73
2022/08/02 08:53:28;;;;;;;4.53;1.70;;;22.70;99.90;;;;;;5127147;27;20415;-72
2022/08/02 08:55:56;;;;;;;4.53;1.55;;;22.70;99.90;;;;;;5128981;27;20418;-73
2022/08/02 08:58:23;;;;;;;4.03;1.58;;;22.60;99.90;;;;;;5131074;28;20398;-73
2022/08/02 09:00:49;;;;;;;4.93;1.88;;;22.90;99.90;;;;;;5131979;27;20414;-73
2022/08/02 09:03:14;;;;;;;4.10;1.60;;;23.30;99.90;;;;;;5127527;27;20426;-73
2022/08/02 09:05:42;;;;;;;4.80;1.30;;;23.20;99.90;;;;;;5129101;27;20471;-73
2022/08/02 09:08:08;;;;;;;5.70;1.55;;;23.50;99.90;;;;;;5130922;28;20399;-73
2022/08/02 09:10:46;;;;;;;5.47;1.65;;;23.50;99.90;;;;;;5117370;27;20454;-72
2022/08/02 09:13:19;;;;;;;4.30;1.60;;;23.30;99.90;;;;;;5102951;28;20395;-72
2022/08/02 09:15:58;;;;;;;4.97;1.60;;;23.30;99.90;;;;;;5127602;28;20402;-73
2022/08/02 09:18:32;;;;;;;4.68;1.50;;;23.80;99.90;;;;;;5100885;28;20443;-72
2022/08/02 09:21:00;;;;;;;4.97;1.75;;;23.80;99.90;;;;;;5101786;28;20422;-73
2022/08/02 09:23:32;;;;;;;3.80;1.58;;;24.00;99.90;;;;;;5131072;28;20742;-73
2022/08/02 09:26:00;;;;;;;5.18;1.73;;;23.90;99.90;;;;;;5118604;27;20529;-72
2022/08/02 09:28:28;;;;;;;3.30;1.70;;;23.60;99.90;;;;;;5125713;27;20435;-72
2022/08/02 09:31:06;;;;;;;3.77;1.90;;;23.60;99.90;;;;;;5108391;27;20784;-73
2022/08/02 09:33:32;;;;;;;4.53;1.90;;;23.60;99.90;;;;;;5131888;27;20395;-73
2022/08/02 09:36:10;;;;;;;4.50;2.10;;;23.80;99.90;;;;;;5106492;28;20445;-73
2022/08/02 09:38:37;;;;;;;6.05;2.20;;;23.80;99.90;;;;;;5101408;27;20446;-73
2022/08/02 09:41:04;;;;;;;8.73;2.40;;;23.80;99.90;;;;;;5132177;27;20422;-73
2022/08/02 09:43:38;;;;;;;5.28;2.25;;;24.00;99.90;;;;;;5120231;27;20428;-73
2022/08/02 09:46:20;;;;;;;4.53;2.20;;;24.20;99.90;;;;;;5117977;27;20420;-73
2022/08/02 09:48:51;;;;;;;6.57;2.33;;;24.10;99.90;;;;;;5129640;27;20406;-73
2022/08/02 09:51:28;;;;;;;5.10;2.40;;;24.40;99.90;;;;;;5133809;27;20499;-73
2022/08/02 09:53:57;;;;;;;4.53;2.20;;;24.60;99.90;;;;;;5127969;27;20760;-73
2022/08/02 09:56:24;;;;;;;4.45;2.47;;;24.80;99.90;;;;;;5133862;27;20399;-73
2022/08/02 09:58:52;;;;;;;5.35;2.55;;;24.90;99.90;;;;;;5116089;27;20451;-74
2022/08/02 10:01:20;;;;;;;6.03;2.80;;;24.60;99.90;;;;;;5128452;27;20822;-73
2022/08/02 10:04:00;;;;;;;5.18;2.53;;;24.60;99.90;;;;;;5113424;27;20515;-73
2022/08/02 10:06:26;;;;;;;6.00;2.70;;;25.10;99.90;;;;;;5128665;27;20728;-74
2022/08/02 10:08:53;;;;;;;5.35;2.60;;;25.10;99.90;;;;;;5113874;27;20403;-74
2022/08/02 10:11:21;;;;;;;5.57;2.67;;;25.30;99.90;;;;;;5122572;27;20406;-74
2022/08/02 10:13:48;;;;;;;7.15;2.70;;;25.40;99.90;;;;;;5143064;27;20468;-73
2022/08/02 10:16:16;;;;;;;5.72;3.05;;;25.70;99.90;;;;;;5117836;27;21070;-73
2022/08/02 10:18:42;;;;;;;6.88;3.10;;;25.80;99.90;;;;;;5121917;27;20446;-74
2022/08/02 10:21:19;;;;;;;6.05;3.30;;;26.00;99.90;;;;;;5133044;27;20461;-73
2022/08/02 10:23:47;;;;;;;7.40;2.80;;;26.20;99.90;;;;;;5113962;27;20454;-73
2022/08/02 10:26:18;;;;;;;9.02;3.28;;;26.30;99.90;;;;;;5120416;27;20432;-73
2022/08/02 10:28:48;;;;;;;6.47;3.75;;;25.70;99.90;;;;;;5128107;27;20414;-74
2022/08/02 10:31:22;;;;;;;6.73;3.13;;;25.00;99.90;;;;;;5114736;27;20428;-74
2022/08/02 10:33:51;;;;;;;8.77;3.50;;;25.40;99.90;;;;;;5133537;27;20441;-73
2022/08/02 10:36:19;;;;;;;7.45;3.50;;;25.50;99.90;;;;;;5131588;27;20414;-74
2022/08/02 10:38:45;;;;;;;6.25;3.17;;;25.50;99.90;;;;;;5133750;27;20755;-74
2022/08/02 10:41:11;;;;;;;6.05;3.40;;;25.80;99.90;;;;;;5128631;27;20406;-74
2022/08/02 10:43:37;;;;;;;6.25;3.35;;;26.20;99.90;;;;;;5124609;27;20410;-74
2022/08/02 10:46:21;;;;;;;7.00;3.40;;;26.60;99.90;;;;;;5132004;27;20927;-73
2022/08/02 10:49:11;;;;;;;6.38;3.10;;;26.70;99.90;;;;;;5112274;27;20447;-73
2022/08/02 10:52:01;;;;;;;7.22;3.28;;;27.10;99.90;;;;;;5121075;27;20420;-74
2022/08/02 10:54:32;;;;;;;8.23;3.27;;;27.20;99.90;;;;;;5125652;27;20422;-74
2022/08/02 10:56:59;;;;;;;5.80;3.08;;;27.20;99.90;;;;;;5132718;27;20474;-74
2022/08/02 10:59:31;;;;;;;6.97;3.38;;;27.10;99.90;;;;;;5116230;27;20789;-73
2022/08/02 11:02:01;;;;;;;7.90;3.20;;;26.40;99.90;;;;;;5128444;27;20429;-73
2022/08/02 11:04:50;;;;;;;7.00;3.33;;;26.50;99.90;;;;;;5110239;27;20414;-73
2022/08/02 11:07:29;;;;;;;6.43;3.25;;;26.70;99.90;;;;;;5085647;27;20395;-73
2022/08/02 11:09:55;;;;;;;5.43;2.43;;;27.00;99.90;;;;;;5125047;27;20420;-73
2022/08/02 11:12:21;;;;;;;5.93;2.40;;;27.20;99.90;;;;;;5124163;27;20905;-74
2022/08/02 11:15:07;;;;;;;3.47;2.28;;;27.10;99.90;;;;;;5127436;27;21129;-73
2022/08/02 11:17:57;;;;;;;4.10;2.70;;;27.00;99.90;;;;;;5122831;27;20476;-74
2022/08/02 11:20:25;;;;;;;6.43;2.80;;;26.70;99.90;;;;;;5126397;27;20444;-73
2022/08/02 11:22:53;;;;;;;4.75;2.75;;;26.80;99.90;;;;;;5110858;27;20914;-74
2022/08/02 11:25:22;;;;;;;7.60;2.97;;;26.90;99.90;;;;;;5110608;27;20432;-74
2022/08/02 11:27:51;;;;;;;8.43;3.03;;;27.00;99.90;;;;;;5132672;27;20940;-73
2022/08/02 11:30:18;;;;;;;6.13;3.83;;;26.90;99.90;;;;;;5128878;27;20411;-71
2022/08/02 11:32:44;;;;;;;5.50;3.40;;;27.20;99.90;;;;;;5100584;27;20422;-71
2022/08/02 11:35:10;;;;;;;6.40;3.47;;;27.10;99.90;;;;;;5101219;28;20784;-71
2022/08/02 11:37:41;;;;;;;7.38;3.80;;;26.90;99.90;;;;;;5122951;27;20406;-71
2022/08/02 11:40:13;;;;;;;7.53;3.90;;;26.90;99.90;;;;;;5119841;27;20412;-71
2022/08/02 11:42:43;;;;;;;6.85;4.07;;;27.00;99.90;;;;;;5133373;27;20426;-72
2022/08/02 11:45:10;;;;;;;7.20;3.43;;;27.00;99.90;;;;;;5131299;27;20424;-73
2022/08/02 11:47:47;;;;;;;7.93;4.25;;;26.40;99.90;;;;;;5117648;27;20942;-73
2022/08/02 11:50:14;;;;;;;7.07;4.80;;;27.80;99.90;;;;;;5133760;27;20421;-74
2022/08/02 11:52:40;;;;;;;8.93;5.47;;;27.80;99.90;;;;;;5133576;27;20421;-74
2022/08/02 11:55:07;;;;;;;8.32;5.60;;;27.50;99.90;;;;;;5112798;28;20965;-74
2022/08/02 11:57:34;;;;;;;8.13;5.15;;;27.50;99.90;;;;;;5112474;27;20457;-75
2022/08/02 12:00:00;;;;;;;10.75;6.57;;;27.50;99.90;;;;;;5129407;27;20911;-74
2022/08/02 12:02:28;;;;;;;10.40;6.13;;;27.10;99.90;;;;;;5132076;27;20430;-74
2022/08/02 12:04:56;;;;;;;11.65;6.43;;;27.30;99.90;;;;;;5131073;27;20415;-74
2022/08/02 12:07:30;;;;;;;19.60;6.60;;;26.80;99.90;;;;;;5114808;27;20410;-74
2022/08/02 12:10:16;;;;;;;9.88;6.05;;;27.20;99.90;;;;;;5122538;27;20416;-73
2022/08/02 12:12:59;;;;;;;7.35;5.20;;;27.50;99.90;;;;;;5142430;27;20412;-73
2022/08/02 12:15:36;;;;;;;6.55;4.82;;;27.70;99.90;;;;;;5151097;27;20416;-73
2022/08/02 12:20:52;;;;;;;9.35;5.38;;;27.40;99.90;;;;;;5128372;27;20449;-74
2022/08/02 12:23:17;;;;;;;6.32;4.43;;;27.40;99.90;;;;;;5115673;27;20831;-73
2022/08/02 12:25:43;;;;;;;8.00;4.80;;;27.40;99.90;;;;;;5104637;27;20749;-73
2022/08/02 12:28:13;;;;;;;9.87;4.93;;;26.90;99.90;;;;;;5110501;27;20426;-73
2022/08/02 12:31:10;;;;;;;7.70;4.53;;;27.00;99.90;;;;;;5110726;27;20904;-74
2022/08/02 12:33:48;;;;;;;7.55;5.35;;;27.20;99.90;;;;;;5098691;27;20507;-74
2022/08/02 12:36:22;;;;;;;7.15;4.78;;;27.10;99.90;;;;;;5111597;28;20433;-73
2022/08/02 12:38:53;;;;;;;7.05;5.35;;;27.20;99.90;;;;;;5133547;27;20434;-73
2022/08/02 12:41:19;;;;;;;9.10;5.30;;;27.00;99.90;;;;;;5129207;27;20509;-73
2022/08/02 12:43:45;;;;;;;8.00;5.03;;;27.20;99.90;;;;;;5113887;28;20481;-73
2022/08/02 12:46:22;;;;;;;6.10;4.30;;;27.00;99.90;;;;;;5107920;28;20432;-73
2022/08/02 12:48:48;;;;;;;8.55;4.63;;;26.90;99.90;;;;;;5130805;27;20442;-73
2022/08/02 12:51:28;;;;;;;6.72;3.80;;;26.70;99.90;;;;;;5123318;27;20427;-73
2022/08/02 12:54:10;;;;;;;7.13;4.25;;;26.70;99.90;;;;;;5122219;27;20419;-73
2022/08/02 12:56:37;;;;;;;7.57;4.68;;;26.60;99.90;;;;;;5106125;27;20432;-74
2022/08/02 12:59:04;;;;;;;8.57;4.50;;;26.80;99.90;;;;;;5125970;28;20419;-74
2022/08/02 13:01:30;;;;;;;7.20;4.60;;;26.70;99.90;;;;;;5112225;28;20423;-73
2022/08/02 13:03:56;;;;;;;7.30;4.73;;;26.70;99.90;;;;;;5127881;27;20414;-74
2022/08/02 13:06:23;;;;;;;6.78;4.85;;;26.90;99.90;;;;;;5128559;27;20402;-74
2022/08/02 13:08:50;;;;;;;7.20;4.78;;;26.80;99.90;;;;;;5124669;27;20506;-74
2022/08/02 13:11:16;;;;;;;8.45;4.95;;;27.20;99.90;;;;;;5109887;27;20766;-74
2022/08/02 13:13:42;;;;;;;9.15;5.22;;;27.00;99.90;;;;;;5112128;28;20503;-74
2022/08/02 13:16:09;;;;;;;8.48;5.25;;;26.90;99.90;;;;;;5114529;28;20420;-74
2022/08/02 13:18:35;;;;;;;8.25;5.25;;;27.10;99.90;;;;;;5127095;27;20408;-73
2022/08/02 13:21:04;;;;;;;8.23;4.78;;;26.70;99.90;;;;;;5131610;27;20420;-74
2022/08/02 13:23:29;;;;;;;7.93;5.03;;;27.00;99.90;;;;;;5120400;27;20411;-74
2022/08/02 13:25:55;;;;;;;8.38;5.70;;;26.80;99.90;;;;;;5103938;27;20859;-74
2022/08/02 13:28:21;;;;;;;9.30;6.20;;;26.60;99.90;;;;;;5127356;27;20406;-73
2022/08/02 13:30:47;;;;;;;9.52;6.15;;;26.60;99.90;;;;;;5134715;27;20478;-73
2022/08/02 13:33:14;;;;;;;11.18;6.38;;;26.40;99.90;;;;;;5126294;27;20471;-74
2022/08/02 13:35:41;;;;;;;9.30;7.60;;;26.50;99.90;;;;;;5132101;27;20419;-73